createdAt,value
2019-01-20T00:00:36.281Z,97779.50
2019-01-20T00:03:08.138Z,97775.77
2019-01-20T00:05:39.960Z,97771.95
2019-01-20T00:08:11.950Z,97772.36
2019-01-20T00:10:43.790Z,97772.46
2019-01-20T00:13:15.765Z,97773.86
2019-01-20T00:15:47.922Z,97775.17
2019-01-20T00:18:22.544Z,97774.41
2019-01-20T00:20:54.429Z,97775.63
2019-01-20T00:23:27.882Z,97770.97
2019-01-20T00:25:59.734Z,97770.08
2019-01-20T00:28:31.594Z,97765.45
2019-01-20T00:31:06.300Z,97765.97
2019-01-20T00:33:39.262Z,97763.89
2019-01-20T00:36:11.110Z,97770.20
2019-01-20T00:38:43.082Z,97767.75
2019-01-20T00:41:14.952Z,97766.13
2019-01-20T00:43:46.811Z,97762.88
2019-01-20T00:46:18.641Z,97767.94
2019-01-20T00:48:50.493Z,97768.48
2019-01-20T00:51:22.739Z,97770.83
2019-01-20T00:53:56.308Z,97770.71
2019-01-20T00:56:28.177Z,97766.09
2019-01-20T00:59:01.317Z,97774.56
2019-01-20T01:01:33.177Z,97771.06
2019-01-20T01:04:07.335Z,97771.12
2019-01-20T01:06:41.774Z,97771.59
2019-01-20T01:09:19.029Z,97777.47
2019-01-20T01:11:53.008Z,97771.16
2019-01-20T01:14:25.953Z,97772.97
2019-01-20T01:16:57.790Z,97769.68
2019-01-20T01:19:31.851Z,97770.19
2019-01-20T01:22:08.472Z,97774.57
2019-01-20T01:24:40.321Z,97774.27
2019-01-20T01:27:12.212Z,97779.39
2019-01-20T01:29:44.072Z,97778.48
2019-01-20T01:32:16.854Z,97782.72
2019-01-20T01:34:48.831Z,97779.75
2019-01-20T01:37:20.697Z,97778.92
2019-01-20T01:39:52.537Z,97774.30
2019-01-20T01:42:24.376Z,97771.70
2019-01-20T01:44:56.227Z,97772.20
2019-01-20T01:47:29.017Z,97766.25
2019-01-20T01:50:00.915Z,97769.68
2019-01-20T01:52:32.767Z,97766.39
2019-01-20T01:55:04.643Z,97763.91
2019-01-20T01:57:36.526Z,97763.42
2019-01-20T02:00:31.482Z,97760.87
2019-01-20T02:03:03.339Z,97756.62
2019-01-20T02:05:35.150Z,97762.04
2019-01-20T02:08:09.164Z,97756.88
2019-01-20T02:10:40.990Z,97765.77
2019-01-20T02:13:13.412Z,97763.14
2019-01-20T02:15:45.234Z,97756.80
2019-01-20T02:18:17.082Z,97766.52
2019-01-20T02:20:50.323Z,97760.62
2019-01-20T02:23:22.186Z,97757.72
2019-01-20T02:25:54.032Z,97758.63
2019-01-20T02:28:27.257Z,97761.74
2019-01-20T02:30:59.081Z,97769.91
2019-01-20T02:33:33.710Z,97769.08
2019-01-20T02:36:07.977Z,97767.36
2019-01-20T02:38:42.591Z,97769.00
2019-01-20T02:41:14.420Z,97764.81
2019-01-20T02:43:46.299Z,97765.63
2019-01-20T02:46:18.118Z,97764.81
2019-01-20T02:48:51.840Z,97766.56
2019-01-20T02:51:27.231Z,97772.95
2019-01-20T02:53:59.003Z,97768.78
2019-01-20T02:56:36.074Z,97768.31
2019-01-20T02:59:10.277Z,97769.61
2019-01-20T03:01:42.434Z,97764.88
2019-01-20T03:04:14.374Z,97760.67
2019-01-20T03:06:47.896Z,97766.31
2019-01-20T03:09:23.618Z,97761.75
2019-01-20T03:11:53.460Z,97766.67
2019-01-20T03:14:25.453Z,97768.09
2019-01-20T03:16:59.016Z,97767.75
2019-01-20T03:19:31.293Z,97766.95
2019-01-20T03:22:05.190Z,97766.42
2019-01-20T03:24:37.057Z,97764.38
2019-01-20T03:27:08.885Z,97765.54
2019-01-20T03:29:41.876Z,97766.81
2019-01-20T03:32:16.233Z,97760.48
2019-01-20T03:34:48.093Z,97760.11
2019-01-20T03:37:19.960Z,97755.02
2019-01-20T03:39:54.576Z,97755.94
2019-01-20T03:42:26.414Z,97755.16
2019-01-20T03:44:58.255Z,97755.22
2019-01-20T03:47:30.092Z,97749.84
2019-01-20T03:50:01.965Z,97747.80
2019-01-20T03:52:33.804Z,97750.75
2019-01-20T03:55:06.569Z,97744.42
2019-01-20T03:57:38.429Z,97741.88
2019-01-20T04:00:21.364Z,97745.20
2019-01-20T04:03:00.601Z,97743.34
2019-01-20T04:05:32.421Z,97743.56
2019-01-20T04:08:04.301Z,97741.41
2019-01-20T04:10:36.144Z,97745.09
2019-01-20T04:13:09.505Z,97747.16
2019-01-20T04:15:41.344Z,97746.69
2019-01-20T04:18:13.197Z,97750.93
2019-01-20T04:20:45.060Z,97742.41
2019-01-20T04:23:16.886Z,97747.39
2019-01-20T04:25:49.043Z,97746.55
2019-01-20T04:28:20.869Z,97742.84
2019-01-20T04:30:52.729Z,97747.86
2019-01-20T04:33:24.584Z,97745.84
2019-01-20T04:35:56.422Z,97743.67
2019-01-20T04:38:32.576Z,97740.75
2019-01-20T04:41:04.913Z,97743.20
2019-01-20T04:43:37.869Z,97738.67
2019-01-20T04:46:10.792Z,97738.25
2019-01-20T04:48:42.667Z,97735.34
2019-01-20T04:51:14.625Z,97737.92
2019-01-20T04:53:46.858Z,97732.45
2019-01-20T04:56:18.750Z,97736.56
2019-01-20T04:58:50.672Z,97741.62
2019-01-20T05:01:22.491Z,97732.80
2019-01-20T05:03:54.325Z,97741.71
2019-01-20T05:06:26.173Z,97735.77
2019-01-20T05:08:58.024Z,97743.81
2019-01-20T05:11:29.862Z,97740.80
2019-01-20T05:14:01.705Z,97747.94
2019-01-20T05:16:33.610Z,97746.64
2019-01-20T05:19:05.459Z,97750.48
2019-01-20T05:21:37.328Z,97744.95
2019-01-20T05:24:09.187Z,97749.58
2019-01-20T05:26:41.025Z,97748.30
2019-01-20T05:29:12.901Z,97753.00
2019-01-20T05:31:44.755Z,97747.94
2019-01-20T05:34:16.617Z,97750.04
2019-01-20T05:36:48.455Z,97745.89
2019-01-20T05:39:20.326Z,97753.47
2019-01-20T05:41:52.161Z,97745.50
2019-01-20T05:44:24.098Z,97752.75
2019-01-20T05:46:55.950Z,97750.67
2019-01-20T05:49:27.837Z,97751.51
2019-01-20T05:51:59.687Z,97754.48
2019-01-20T05:54:31.518Z,97752.34
2019-01-20T05:57:03.574Z,97753.55
2019-01-20T05:59:35.417Z,97757.32
2019-01-20T06:02:08.560Z,97749.34
2019-01-20T06:04:40.381Z,97751.14
2019-01-20T06:07:12.227Z,97754.16
2019-01-20T06:09:45.725Z,97752.58
2019-01-20T06:12:17.577Z,97752.03
2019-01-20T06:14:51.944Z,97755.35
2019-01-20T06:17:23.796Z,97751.84
2019-01-20T06:19:55.632Z,97753.55
2019-01-20T06:22:27.550Z,97759.09
2019-01-20T06:24:59.389Z,97757.68
2019-01-20T06:27:31.267Z,97762.72
2019-01-20T06:30:03.108Z,97766.89
2019-01-20T06:32:34.978Z,97761.44
2019-01-20T06:35:07.092Z,97761.36
2019-01-20T06:37:39.247Z,97765.59
2019-01-20T06:40:14.919Z,97767.53
2019-01-20T06:42:46.780Z,97767.03
2019-01-20T06:45:23.022Z,97770.35
2019-01-20T06:47:57.204Z,97771.57
2019-01-20T06:50:31.473Z,97775.36
2019-01-20T06:53:04.882Z,97778.73
2019-01-20T06:55:36.770Z,97782.00
2019-01-20T06:58:12.508Z,97784.97
2019-01-20T07:00:44.477Z,97795.04
2019-01-20T07:03:19.353Z,97784.44
2019-01-20T07:05:51.428Z,97791.95
2019-01-20T07:08:23.286Z,97790.56
2019-01-20T07:10:55.165Z,97793.12
2019-01-20T07:13:27.033Z,97786.86
2019-01-20T07:16:01.795Z,97799.19
2019-01-20T07:18:35.408Z,97800.47
2019-01-20T07:21:10.216Z,97803.51
2019-01-20T07:23:42.114Z,97804.28
2019-01-20T07:26:13.949Z,97801.98
2019-01-20T07:28:47.288Z,97813.00
2019-01-20T07:31:19.758Z,97807.52
2019-01-20T07:33:51.791Z,97812.55
2019-01-20T07:36:23.625Z,97811.64
2019-01-20T07:38:57.430Z,97817.45
2019-01-20T07:41:29.270Z,97819.78
2019-01-20T07:44:04.127Z,97820.97
2019-01-20T07:46:35.986Z,97826.92
2019-01-20T07:49:09.477Z,97824.31
2019-01-20T07:51:41.344Z,97835.28
2019-01-20T07:54:13.250Z,97833.41
2019-01-20T07:56:45.150Z,97834.97
2019-01-20T07:59:18.831Z,97838.86
2019-01-20T08:01:50.682Z,97837.30
2019-01-20T08:04:24.835Z,97830.61
2019-01-20T08:06:56.696Z,97840.86
2019-01-20T08:09:28.560Z,97844.23
2019-01-20T08:12:01.617Z,97846.70
2019-01-20T08:14:35.147Z,97847.86
2019-01-20T08:17:08.978Z,97852.78
2019-01-20T08:19:42.654Z,97858.57
2019-01-20T08:22:14.498Z,97859.50
2019-01-20T08:24:47.818Z,97856.80
2019-01-20T08:27:19.669Z,97863.03
2019-01-20T08:29:51.542Z,97863.56
2019-01-20T08:32:27.991Z,97865.86
2019-01-20T08:34:59.876Z,97864.50
2019-01-20T08:37:34.315Z,97869.53
2019-01-20T08:40:10.300Z,97872.17
2019-01-20T08:42:44.467Z,97875.08
2019-01-20T08:45:49.284Z,97876.10
2019-01-20T08:48:22.729Z,97875.56
2019-01-20T08:50:54.614Z,97875.89
2019-01-20T08:53:26.499Z,97878.79
2019-01-20T08:55:58.351Z,97876.42
2019-01-20T08:58:30.234Z,97880.66
2019-01-20T09:01:02.113Z,97882.87
2019-01-20T09:03:33.979Z,97881.14
2019-01-20T09:06:05.855Z,97884.84
2019-01-20T09:08:37.739Z,97887.50
2019-01-20T09:11:09.574Z,97883.90
2019-01-20T09:13:41.735Z,97892.17
2019-01-20T09:16:13.547Z,97885.56
2019-01-20T09:18:45.386Z,97892.31
2019-01-20T09:21:17.214Z,97899.02
2019-01-20T09:23:49.072Z,97894.77
2019-01-20T09:26:20.951Z,97897.13
2019-01-20T09:28:52.782Z,97901.17
2019-01-20T09:31:24.686Z,97900.14
2019-01-20T09:33:56.649Z,97907.89
2019-01-20T09:36:28.508Z,97904.14
2019-01-20T09:39:00.339Z,97907.06
2019-01-20T09:41:32.236Z,97912.83
2019-01-20T09:44:04.166Z,97913.70
2019-01-20T09:46:36.033Z,97917.41
2019-01-20T09:49:07.890Z,97927.52
2019-01-20T09:51:39.759Z,97930.30
2019-01-20T09:54:11.604Z,97922.97
2019-01-20T09:56:43.451Z,97928.00
2019-01-20T09:59:15.339Z,97926.72
2019-01-20T10:01:49.239Z,97934.83
2019-01-20T10:04:21.078Z,97932.47
2019-01-20T10:06:52.992Z,97932.67
2019-01-20T10:09:24.845Z,97931.44
2019-01-20T10:11:56.709Z,97929.50
2019-01-20T10:14:28.570Z,97930.53
2019-01-20T10:17:00.450Z,97933.05
2019-01-20T10:19:32.306Z,97936.49
2019-01-20T10:22:04.159Z,97940.92
2019-01-20T10:24:37.115Z,97939.02
2019-01-20T10:27:09.020Z,97942.41
2019-01-20T10:29:40.959Z,97944.47
2019-01-20T10:32:12.860Z,97946.73
2019-01-20T10:34:45.229Z,97948.83
2019-01-20T10:37:17.400Z,97946.53
2019-01-20T10:39:49.351Z,97946.38
2019-01-20T10:42:21.301Z,97943.55
2019-01-20T10:44:53.185Z,97943.39
2019-01-20T10:47:25.030Z,97944.92
2019-01-20T10:49:56.906Z,97943.03
2019-01-20T10:52:28.810Z,97941.94
2019-01-20T10:55:00.678Z,97942.44
2019-01-20T10:57:32.588Z,97945.25
2019-01-20T11:00:07.538Z,97937.55
2019-01-20T11:02:39.381Z,97939.31
2019-01-20T11:05:11.695Z,97943.05
2019-01-20T11:07:43.665Z,97940.67
2019-01-20T11:10:17.152Z,97938.30
2019-01-20T11:12:48.963Z,97940.83
2019-01-20T11:15:21.788Z,97940.12
2019-01-20T11:17:53.647Z,97940.02
2019-01-20T11:20:25.952Z,97940.33
2019-01-20T11:22:57.829Z,97946.98
2019-01-20T11:25:33.493Z,97945.42
2019-01-20T11:28:05.640Z,97938.94
2019-01-20T11:30:37.497Z,97945.08
2019-01-20T11:33:09.703Z,97943.30
2019-01-20T11:35:41.638Z,97945.08
2019-01-20T11:38:13.602Z,97939.36
2019-01-20T11:40:45.459Z,97935.56
2019-01-20T11:43:17.326Z,97934.63
2019-01-20T11:45:49.164Z,97936.50
2019-01-20T11:48:22.148Z,97937.73
2019-01-20T11:50:54.001Z,97934.18
2019-01-20T11:53:25.843Z,97932.34
2019-01-20T11:55:57.813Z,97930.67
2019-01-20T11:58:29.673Z,97927.31
2019-01-20T12:01:01.570Z,97923.86
2019-01-20T12:03:34.556Z,97918.47
2019-01-20T12:06:07.696Z,97921.38
2019-01-20T12:08:39.585Z,97923.52
2019-01-20T12:11:11.429Z,97915.53
2019-01-20T12:13:43.462Z,97920.54
2019-01-20T12:16:15.336Z,97925.50
2019-01-20T12:18:47.214Z,97919.25
2019-01-20T12:21:19.103Z,97922.41
2019-01-20T12:23:51.152Z,97922.92
2019-01-20T12:26:22.998Z,97918.30
2019-01-20T12:28:54.813Z,97910.25
2019-01-20T12:31:26.708Z,97917.95
2019-01-20T12:33:58.557Z,97915.65
2019-01-20T12:36:30.409Z,97924.66
2019-01-20T12:39:02.218Z,97915.52
2019-01-20T12:41:34.174Z,97919.02
2019-01-20T12:44:06.436Z,97912.45
2019-01-20T12:46:38.283Z,97912.63
2019-01-20T12:49:10.138Z,97905.63
2019-01-20T12:51:42.433Z,97905.45
2019-01-20T12:54:14.328Z,97911.36
2019-01-20T12:56:47.350Z,97909.62
2019-01-20T12:59:19.287Z,97910.91
2019-01-20T13:01:51.264Z,97901.11
2019-01-20T13:04:23.135Z,97905.05
2019-01-20T13:06:55.010Z,97907.67
2019-01-20T13:09:26.857Z,97903.02
2019-01-20T13:11:58.740Z,97907.52
2019-01-20T13:14:30.684Z,97903.97
2019-01-20T13:17:02.663Z,97906.80
2019-01-20T13:19:35.600Z,97904.04
2019-01-20T13:22:07.475Z,97903.18
2019-01-20T13:24:39.335Z,97898.45
2019-01-20T13:27:11.193Z,97906.73
2019-01-20T13:29:43.065Z,97902.72
2019-01-20T13:32:16.065Z,97906.05
2019-01-20T13:34:47.920Z,97901.89
2019-01-20T13:37:19.761Z,97905.38
2019-01-20T13:39:51.648Z,97908.60
2019-01-20T13:42:23.500Z,97906.92
2019-01-20T13:44:55.473Z,97908.60
2019-01-20T13:47:27.337Z,97912.28
2019-01-20T13:49:59.318Z,97912.86
2019-01-20T13:52:31.177Z,97912.86
2019-01-20T13:55:04.425Z,97914.30
2019-01-20T13:57:36.290Z,97907.52
2019-01-20T14:00:16.695Z,97916.27
2019-01-20T14:02:49.600Z,97918.73
2019-01-20T14:05:21.465Z,97920.36
2019-01-20T14:07:53.394Z,97914.81
2019-01-20T14:10:28.249Z,97915.23
2019-01-20T14:13:00.147Z,97920.20
2019-01-20T14:15:32.027Z,97919.50
2019-01-20T14:18:03.964Z,97926.88
2019-01-20T14:20:35.893Z,97922.66
2019-01-20T14:23:07.758Z,97920.88
2019-01-20T14:25:39.624Z,97931.08
2019-01-20T14:28:11.486Z,97932.54
2019-01-20T14:30:43.301Z,97936.80
2019-01-20T14:33:15.201Z,97941.20
2019-01-20T14:35:47.073Z,97949.80
2019-01-20T14:38:18.931Z,97946.85
2019-01-20T14:40:50.776Z,97943.24
2019-01-20T14:43:22.673Z,97950.53
2019-01-20T14:45:54.500Z,97941.60
2019-01-20T14:48:26.364Z,97952.23
2019-01-20T14:50:58.180Z,97950.53
2019-01-20T14:53:30.073Z,97949.36
2019-01-20T14:56:01.911Z,97950.07
2019-01-20T14:58:33.779Z,97953.70
2019-01-20T15:01:05.843Z,97957.45
2019-01-20T15:03:37.728Z,97962.11
2019-01-20T15:06:09.561Z,97962.94
2019-01-20T15:08:41.417Z,97962.11
2019-01-20T15:11:14.853Z,97963.63
2019-01-20T15:13:46.716Z,97967.25
2019-01-20T15:16:18.926Z,97974.80
2019-01-20T15:18:50.774Z,97969.42
2019-01-20T15:21:22.743Z,97978.42
2019-01-20T15:23:54.603Z,97981.56
2019-01-20T15:26:26.487Z,97976.66
2019-01-20T15:28:59.986Z,97986.22
2019-01-20T15:31:32.924Z,97987.72
2019-01-20T15:34:08.877Z,97987.16
2019-01-20T15:36:40.788Z,97994.81
2019-01-20T15:39:12.690Z,97991.06
2019-01-20T15:41:44.547Z,97992.62
2019-01-20T15:44:16.409Z,97992.75
2019-01-20T15:46:48.272Z,97997.66
2019-01-20T15:49:20.152Z,97997.51
2019-01-20T15:51:52.017Z,98000.34
2019-01-20T15:54:23.880Z,98000.22
2019-01-20T15:56:55.838Z,98007.36
2019-01-20T15:59:27.671Z,98011.11
2019-01-20T16:01:59.537Z,98008.03
2019-01-20T16:04:31.447Z,98011.59
2019-01-20T16:07:03.296Z,98017.85
2019-01-20T16:09:35.156Z,98019.45
2019-01-20T16:12:07.106Z,98026.03
2019-01-20T16:14:38.972Z,98021.55
2019-01-20T16:17:11.988Z,98022.95
2019-01-20T16:19:44.052Z,98028.95
2019-01-20T16:22:16.014Z,98031.42
2019-01-20T16:24:47.884Z,98027.87
2019-01-20T16:27:19.865Z,98032.91
2019-01-20T16:29:51.722Z,98043.14
2019-01-20T16:32:23.700Z,98041.55
2019-01-20T16:34:56.851Z,98049.56
2019-01-20T16:37:28.827Z,98049.16
2019-01-20T16:40:02.276Z,98053.45
2019-01-20T16:42:34.132Z,98057.55
2019-01-20T16:45:08.018Z,98065.94
2019-01-20T16:47:42.938Z,98062.78
2019-01-20T16:50:19.134Z,98065.30
2019-01-20T16:52:54.764Z,98065.37
2019-01-20T16:55:25.642Z,98067.98
2019-01-20T16:57:57.551Z,98066.98
2019-01-20T17:00:32.238Z,98074.48
2019-01-20T17:03:06.593Z,98073.83
2019-01-20T17:05:38.485Z,98069.16
2019-01-20T17:08:10.870Z,98075.17
2019-01-20T17:10:44.268Z,98079.23
2019-01-20T17:13:16.164Z,98079.53
2019-01-20T17:15:48.465Z,98074.89
2019-01-20T17:18:20.336Z,98078.84
2019-01-20T17:20:52.219Z,98077.83
2019-01-20T17:23:24.083Z,98079.77
2019-01-20T17:25:59.803Z,98087.83
2019-01-20T17:28:33.412Z,98089.52
2019-01-20T17:31:06.337Z,98091.67
2019-01-20T17:33:38.287Z,98092.84
2019-01-20T17:36:10.168Z,98088.66
2019-01-20T17:38:44.651Z,98098.16
2019-01-20T17:41:22.083Z,98096.78
2019-01-20T17:43:56.975Z,98103.02
2019-01-20T17:46:30.472Z,98100.73
2019-01-20T17:49:02.293Z,98110.07
2019-01-20T17:51:42.049Z,98107.36
2019-01-20T17:54:18.710Z,98109.15
2019-01-20T17:56:52.328Z,98112.55
2019-01-20T17:59:25.279Z,98127.34
2019-01-20T18:01:57.130Z,98123.05
2019-01-20T18:04:28.999Z,98120.12
2019-01-20T18:07:01.145Z,98125.80
2019-01-20T18:09:35.735Z,98124.20
2019-01-20T18:12:07.614Z,98124.55
2019-01-20T18:14:42.689Z,98125.48
2019-01-20T18:17:17.193Z,98133.17
2019-01-20T18:19:49.042Z,98126.11
2019-01-20T18:22:32.275Z,98127.77
2019-01-20T18:25:04.320Z,98130.88
2019-01-20T18:27:38.977Z,98138.25
2019-01-20T18:30:16.045Z,98137.55
2019-01-20T18:32:47.937Z,98142.86
2019-01-20T18:35:20.691Z,98143.55
2019-01-20T18:37:52.566Z,98147.91
2019-01-20T18:40:27.008Z,98144.23
2019-01-20T18:42:58.856Z,98152.22
2019-01-20T18:45:32.880Z,98152.31
2019-01-20T18:48:04.839Z,98157.53
2019-01-20T18:50:40.696Z,98153.19
2019-01-20T18:53:12.551Z,98157.31
2019-01-20T18:55:47.391Z,98150.63
2019-01-20T18:58:23.425Z,98153.80
2019-01-20T19:00:57.351Z,98154.34
2019-01-20T19:03:29.196Z,98156.45
2019-01-20T19:06:17.641Z,98160.12
2019-01-20T19:08:52.516Z,98160.38
2019-01-20T19:11:24.342Z,98166.29
2019-01-20T19:13:56.188Z,98168.40
2019-01-20T19:16:28.059Z,98172.74
2019-01-20T19:19:03.468Z,98168.81
2019-01-20T19:21:46.790Z,98175.43
2019-01-20T19:24:22.621Z,98177.82
2019-01-20T19:26:54.682Z,98176.95
2019-01-20T19:29:28.584Z,98181.12
2019-01-20T19:32:00.449Z,98181.20
2019-01-20T19:34:33.822Z,98182.58
2019-01-20T19:37:05.673Z,98191.81
2019-01-20T19:39:38.651Z,98185.95
2019-01-20T19:42:12.231Z,98185.98
2019-01-20T19:44:44.108Z,98193.30
2019-01-20T19:47:19.074Z,98193.72
2019-01-20T19:49:50.943Z,98194.67
2019-01-20T19:52:26.808Z,98198.06
2019-01-20T19:54:58.686Z,98193.05
2019-01-20T19:57:35.018Z,98197.65
2019-01-20T20:00:17.602Z,98198.02
2019-01-20T20:02:49.584Z,98204.43
2019-01-20T20:05:23.548Z,98198.23
2019-01-20T20:07:57.028Z,98207.73
2019-01-20T20:10:33.377Z,98202.95
2019-01-20T20:13:09.775Z,98215.36
2019-01-20T20:15:41.686Z,98217.54
2019-01-20T20:18:14.651Z,98218.98
2019-01-20T20:20:48.167Z,98221.30
2019-01-20T20:23:20.053Z,98224.58
2019-01-20T20:25:53.915Z,98229.70
2019-01-20T20:28:28.505Z,98234.17
2019-01-20T20:31:03.502Z,98234.96
2019-01-20T20:33:39.865Z,98236.78
2019-01-20T20:36:16.450Z,98238.36
2019-01-20T20:38:48.303Z,98239.72
2019-01-20T20:41:20.362Z,98237.23
2019-01-20T20:43:53.413Z,98240.25
2019-01-20T20:46:30.575Z,98242.03
2019-01-20T20:48:58.959Z,98250.14
2019-01-20T20:51:30.850Z,98243.81
2019-01-20T20:54:02.745Z,98247.73
2019-01-20T20:56:38.601Z,98245.59
2019-01-20T20:59:13.662Z,98251.95
2019-01-20T21:01:49.570Z,98254.19
2019-01-20T21:04:28.987Z,98253.09
2019-01-20T21:06:59.464Z,98258.08
2019-01-20T21:09:34.106Z,98257.16
2019-01-20T21:12:11.514Z,98261.13
2019-01-20T21:14:43.397Z,98262.45
2019-01-20T21:17:17.959Z,98262.74
2019-01-20T21:19:49.883Z,98271.48
2019-01-20T21:22:24.869Z,98269.00
2019-01-20T21:25:01.447Z,98268.59
2019-01-20T21:27:33.320Z,98272.02
2019-01-20T21:30:07.147Z,98271.19
2019-01-20T21:32:41.774Z,98281.78
2019-01-20T21:35:13.058Z,98278.72
2019-01-20T21:37:44.920Z,98279.30
2019-01-20T21:40:17.195Z,98274.58
2019-01-20T21:42:51.519Z,98276.28
2019-01-20T21:45:23.380Z,98280.92
2019-01-20T21:47:55.217Z,98278.35
2019-01-20T21:50:33.327Z,98284.23
2019-01-20T21:53:07.406Z,98283.44
2019-01-20T21:55:39.312Z,98283.06
2019-01-20T21:58:12.690Z,98286.45
2019-01-20T22:00:44.592Z,98287.86
2019-01-20T22:03:26.466Z,98284.58
2019-01-20T22:05:59.313Z,98292.23
2019-01-20T22:08:31.144Z,98299.73
2019-01-20T22:11:06.220Z,98294.98
2019-01-20T22:13:41.243Z,98298.63
2019-01-20T22:16:17.329Z,98298.97
2019-01-20T22:18:49.204Z,98308.36
2019-01-20T22:21:21.030Z,98307.30
2019-01-20T22:23:56.788Z,98307.78
2019-01-20T22:26:31.656Z,98313.16
2019-01-20T22:29:04.614Z,98316.17
2019-01-20T22:31:38.049Z,98322.17
2019-01-20T22:34:09.987Z,98312.73
2019-01-20T22:36:44.827Z,98314.10
2019-01-20T22:39:17.790Z,98315.80
2019-01-20T22:41:49.705Z,98321.72
2019-01-20T22:44:25.513Z,98317.95
2019-01-20T22:47:00.321Z,98316.63
2019-01-20T22:49:35.549Z,98318.73
2019-01-20T22:52:07.325Z,98326.89
2019-01-20T22:54:41.170Z,98332.39
2019-01-20T22:57:12.697Z,98333.59
2019-01-20T22:59:47.315Z,98333.67
2019-01-20T23:02:20.653Z,98335.45
2019-01-20T23:04:57.320Z,98333.19
2019-01-20T23:07:29.156Z,98333.67
2019-01-20T23:10:02.182Z,98331.86
2019-01-20T23:12:34.150Z,98333.52
2019-01-20T23:15:06.355Z,98334.64
2019-01-20T23:17:40.770Z,98338.03
2019-01-20T23:20:19.331Z,98335.02
2019-01-20T23:22:52.794Z,98342.67
2019-01-20T23:25:24.609Z,98334.16
2019-01-20T23:27:56.595Z,98333.50
2019-01-20T23:30:29.703Z,98332.70
2019-01-20T23:33:01.526Z,98332.45
2019-01-20T23:35:36.491Z,98335.52
2019-01-20T23:38:14.626Z,98337.36
2019-01-20T23:40:48.966Z,98335.25
2019-01-20T23:43:22.468Z,98341.66
2019-01-20T23:45:54.648Z,98335.75
2019-01-20T23:48:26.481Z,98337.78
2019-01-20T23:51:02.765Z,98336.69
2019-01-20T23:53:34.676Z,98333.79
2019-01-20T23:56:06.852Z,98336.69
2019-01-20T23:58:38.671Z,98334.23
